Time;durP1;ratioP1;P1;durP2;ratioP2;P2;SDS_P1;SDS_P2;PMS_P1;PMS_P2;Temp;Humidity;BMP_temperature;BMP_pressure;BME280_temperature;BME280_humidity;BME280_pressure;Samples;Min_cycle;Max_cycle;Signal;HPM_P1;HPM_P2
2023/12/26 00:02:16;;;;;;;10.13;2.80;;;8.70;99.90;;;;;;5116793;27;20039;-87
2023/12/26 00:04:43;;;;;;;10.00;3.10;;;;;;;;;;5115819;27;20114;-85
2023/12/26 00:07:09;;;;;;;7.53;2.53;;;;;;;;;;5131457;27;20103;-90
2023/12/26 00:09:39;;;;;;;6.97;2.00;;;8.70;99.90;;;;;;5126378;27;20066;-86
2023/12/26 00:12:09;;;;;;;5.65;2.30;;;;;;;;;;5106987;27;20046;-89
2023/12/26 00:14:35;;;;;;;3.17;1.40;;;;;;;;;;5127229;27;20121;-89
2023/12/26 00:17:01;;;;;;;5.95;2.17;;;;;;;;;;5127956;27;20042;-87
2023/12/26 00:19:27;;;;;;;5.55;2.00;;;;;;;;;;5121039;27;20091;-85
2023/12/26 00:21:53;;;;;;;6.38;2.50;;;;;;;;;;5127792;27;20254;-86
2023/12/26 00:24:20;;;;;;;6.22;1.95;;;;;;;;;;5126999;27;20043;-88
2023/12/26 00:26:46;;;;;;;6.30;2.03;;;;;;;;;;5127743;27;20477;-87
2023/12/26 00:29:12;;;;;;;6.18;2.83;;;;;;;;;;5126831;27;20676;-89
2023/12/26 00:31:41;;;;;;;5.78;2.95;;;8.70;99.90;;;;;;5127036;27;20085;-85
2023/12/26 00:34:07;;;;;;;9.02;3.00;;;;;;;;;;5110372;27;20042;-87
2023/12/26 00:36:34;;;;;;;8.60;3.20;;;;;;;;;;5130649;27;20049;-87
2023/12/26 00:39:00;;;;;;;9.20;3.38;;;;;;;;;;5132550;27;20462;-87
2023/12/26 00:41:26;;;;;;;8.27;2.45;;;;;;;;;;5131748;27;20042;-86
2023/12/26 00:43:52;;;;;;;4.22;1.70;;;;;;;;;;5132006;27;20118;-89
2023/12/26 00:46:19;;;;;;;6.32;1.83;;;8.80;99.90;;;;;;5131209;27;20039;-85
2023/12/26 00:48:45;;;;;;;3.95;1.30;;;;;;;;;;5114390;27;20095;-90
2023/12/26 00:51:11;;;;;;;3.85;1.88;;;;;;;;;;5130503;27;20077;-87
2023/12/26 00:53:37;;;;;;;5.78;1.65;;;;;;;;;;5128884;27;20042;-87
2023/12/26 00:56:03;;;;;;;2.92;0.95;;;8.50;99.90;;;;;;5131351;27;20126;-87
2023/12/26 00:58:30;;;;;;;5.22;1.38;;;;;;;;;;5114369;27;20039;-87
2023/12/26 01:00:56;;;;;;;3.83;1.40;;;;;;;;;;5131128;27;20510;-86
2023/12/26 01:03:22;;;;;;;4.05;1.35;;;;;;;;;;5130971;27;20679;-89
2023/12/26 01:05:51;;;;;;;4.63;1.90;;;;;;;;;;5148966;27;20499;-88
2023/12/26 01:08:21;;;;;;;4.57;1.88;;;;;;;;;;5130878;27;20077;-90
2023/12/26 01:10:47;;;;;;;4.47;1.42;;;;;;;;;;5131026;27;20074;-88
2023/12/26 01:13:13;;;;;;;5.03;1.20;;;;;;;;;;5130907;27;20038;-90
2023/12/26 01:15:40;;;;;;;4.82;1.20;;;;;;;;;;5129827;27;20042;-89
2023/12/26 01:18:07;;;;;;;3.20;1.20;;;;;;;;;;5130845;27;20087;-87
2023/12/26 01:20:34;;;;;;;6.10;1.33;;;;;;;;;;5130765;27;20042;-87
2023/12/26 01:23:00;;;;;;;3.03;0.80;;;;;;;;;;5130688;27;20122;-86
2023/12/26 01:25:28;;;;;;;3.10;0.77;;;;;;;;;;5131004;27;20062;-85
2023/12/26 01:27:54;;;;;;;3.80;0.80;;;;;;;;;;5130816;27;20129;-88
2023/12/26 01:30:21;;;;;;;3.03;0.93;;;;;;;;;;5130605;27;20045;-89
2023/12/26 01:32:47;;;;;;;4.82;1.27;;;;;;;;;;5130502;27;20042;-86
2023/12/26 01:35:13;;;;;;;5.60;0.60;;;;;;;;;;5129708;27;20227;-85
2023/12/26 01:37:40;;;;;;;5.07;0.55;;;;;;;;;;5127864;27;20043;-86
2023/12/26 01:40:06;;;;;;;5.07;0.60;;;;;;;;;;5130422;27;20045;-86
2023/12/26 01:42:32;;;;;;;5.30;0.60;;;;;;;;;;5131403;27;20046;-86
2023/12/26 01:45:00;;;;;;;10.48;1.73;;;;;;;;;;5130854;27;20082;-86
2023/12/26 01:47:26;;;;;;;8.18;0.98;;;;;;;;;;5128638;27;20578;-85
2023/12/26 01:49:53;;;;;;;10.35;0.82;;;;;;;;;;5129830;27;20567;-87
2023/12/26 01:52:20;;;;;;;9.75;0.65;;;;;;;;;;5106555;27;20761;-85
2023/12/26 01:54:47;;;;;;;10.05;0.60;;;;;;;;;;5130059;27;20943;-88
2023/12/26 01:57:13;;;;;;;5.35;0.70;;;;;;;;;;5130282;27;20049;-84
2023/12/26 01:59:40;;;;;;;10.70;0.93;;;9.20;99.90;;;;;;5131074;27;20046;-89
2023/12/26 02:02:07;;;;;;;6.65;1.85;;;;;;;;;;5130836;27;20510;-86
2023/12/26 02:04:34;;;;;;;8.52;1.00;;;;;;;;;;5131096;27;20083;-86
2023/12/26 02:07:01;;;;;;;5.90;1.00;;;;;;;;;;5135975;27;20504;-84
2023/12/26 02:09:27;;;;;;;10.70;1.30;;;;;;;;;;5141915;27;20042;-89
2023/12/26 02:11:54;;;;;;;8.48;1.08;;;;;;;;;;5140299;27;20548;-86
2023/12/26 02:14:21;;;;;;;7.00;1.45;;;;;;;;;;5137064;27;20035;-87
2023/12/26 02:16:48;;;;;;;18.65;1.17;;;;;;;;;;5134663;27;20087;-86
2023/12/26 02:19:17;;;;;;;8.20;1.17;;;;;;;;;;5128596;27;20106;-88
2023/12/26 02:21:43;;;;;;;19.08;2.38;;;;;;;;;;5129110;27;20047;-87
2023/12/26 02:24:09;;;;;;;11.40;0.80;;;8.80;99.90;;;;;;5130479;27;20035;-91
2023/12/26 02:26:39;;;;;;;10.88;1.25;;;8.90;99.90;;;;;;5128897;27;20049;-88
2023/12/26 02:29:06;;;;;;;12.82;1.25;;;;;;;;;;5112194;27;20039;-88
2023/12/26 02:31:33;;;;;;;20.08;2.65;;;;;;;;;;5129158;27;20089;-89
2023/12/26 02:33:59;;;;;;;18.30;1.67;;;;;;;;;;5129419;27;20823;-86
2023/12/26 02:36:26;;;;;;;18.10;1.30;;;;;;;;;;5129679;27;20525;-87
2023/12/26 02:38:52;;;;;;;16.88;0.98;;;;;;;;;;5130724;27;20030;-88
2023/12/26 02:41:18;;;;;;;9.98;2.25;;;;;;;;;;5129669;27;20151;-91
2023/12/26 02:43:44;;;;;;;13.75;0.95;;;;;;;;;;5129661;27;20057;-91
2023/12/26 02:46:10;;;;;;;17.58;2.10;;;;;;;;;;5130833;27;20050;-87
2023/12/26 02:48:36;;;;;;;16.13;1.55;;;;;;;;;;5129448;27;20046;-85
2023/12/26 02:51:07;;;;;;;17.80;2.35;;;;;;;;;;5129793;27;20053;-89
2023/12/26 02:53:34;;;;;;;15.80;1.63;;;;;;;;;;5129159;27;20126;-88
2023/12/26 02:56:00;;;;;;;17.25;1.08;;;;;;;;;;5129332;27;20064;-89
2023/12/26 02:58:26;;;;;;;13.07;1.38;;;;;;;;;;5129845;27;20043;-86
2023/12/26 03:00:52;;;;;;;9.90;1.85;;;;;;;;;;5129550;27;20045;-89
2023/12/26 03:03:19;;;;;;;11.45;1.10;;;;;;;;;;5127023;27;20043;-85
2023/12/26 03:05:45;;;;;;;14.57;2.15;;;;;;;;;;5129015;27;20089;-85
2023/12/26 03:08:11;;;;;;;12.85;0.90;;;;;;;;;;5129098;27;20050;-88
2023/12/26 03:10:37;;;;;;;18.08;1.38;;;;;;;;;;5129257;27;20070;-92
2023/12/26 03:13:03;;;;;;;14.00;0.95;;;;;;;;;;5130254;27;20049;-88
2023/12/26 03:15:30;;;;;;;16.00;2.60;;;;;;;;;;5128628;27;20122;-88
2023/12/26 03:17:56;;;;;;;17.48;1.08;;;;;;;;;;5128040;27;20087;-88
2023/12/26 03:20:22;;;;;;;12.00;1.20;;;;;;;;;;5129139;27;20522;-91
2023/12/26 03:22:48;;;;;;;13.93;1.98;;;;;;;;;;5128010;27;20042;-90
2023/12/26 03:25:14;;;;;;;11.57;1.60;;;;;;;;;;5128462;27;20091;-86
2023/12/26 03:27:40;;;;;;;17.05;1.38;;;;;;;;;;5128073;27;20081;-86
2023/12/26 03:30:07;;;;;;;21.23;1.38;;;;;;;;;;5128353;27;20124;-87
2023/12/26 03:32:34;;;;;;;16.63;3.15;;;;;;;;;;5128233;27;20051;-86
2023/12/26 03:35:00;;;;;;;14.00;1.45;;;;;;;;;;5127471;27;20039;-88
2023/12/26 03:37:26;;;;;;;8.00;0.82;;;;;;;;;;5127222;27;20046;-88
2023/12/26 03:39:52;;;;;;;12.07;1.92;;;;;;;;;;5127085;27;20058;-86
2023/12/26 03:42:18;;;;;;;18.02;1.40;;;;;;;;;;5127471;27;20399;-85
2023/12/26 03:44:46;;;;;;;8.40;2.15;;;;;;;;;;5126906;27;20130;-85
2023/12/26 03:47:13;;;;;;;11.23;0.88;;;;;;;;;;5126396;27;20049;-83
2023/12/26 03:49:39;;;;;;;13.82;1.98;;;7.40;99.90;;;;;;5124351;27;20039;-86
2023/12/26 03:52:05;;;;;;;20.15;1.02;;;;;;;;;;5110704;27;20655;-86
2023/12/26 03:54:32;;;;;;;12.85;1.02;;;;;;;;;;5145591;27;20067;-88
2023/12/26 03:56:58;;;;;;;12.73;1.10;;;;;;;;;;5120191;27;20042;-85
2023/12/26 03:59:24;;;;;;;11.73;0.95;;;;;;;;;;5126940;27;20074;-89
2023/12/26 04:01:50;;;;;;;7.97;0.40;;;;;;;;;;5127210;27;20074;-87
2023/12/26 04:04:16;;;;;;;8.32;1.42;;;;;;;;;;5127162;27;20038;-87
2023/12/26 04:06:42;;;;;;;6.40;0.50;;;;;;;;;;5126976;27;20698;-88
2023/12/26 04:09:09;;;;;;;15.40;1.13;;;;;;;;;;5126538;27;20658;-86
2023/12/26 04:11:35;;;;;;;11.77;1.70;;;;;;;;;;5127213;27;20050;-92
2023/12/26 04:14:01;;;;;;;7.60;1.60;;;;;;;;;;5127544;27;20083;-90
2023/12/26 04:16:28;;;;;;;12.75;1.38;;;;;;;;;;5129666;27;20061;-88
2023/12/26 04:18:54;;;;;;;7.80;0.88;;;;;;;;;;5134041;27;20047;-88
2023/12/26 04:21:20;;;;;;;14.27;0.95;;;;;;;;;;5135424;27;20064;-87
2023/12/26 04:23:46;;;;;;;13.10;3.40;;;;;;;;;;5134102;27;20035;-86
2023/12/26 04:26:12;;;;;;;10.48;1.00;;;;;;;;;;5135765;27;20047;-85
2023/12/26 04:28:38;;;;;;;21.52;1.38;;;;;;;;;;5130873;27;20035;-88
2023/12/26 04:31:06;;;;;;;14.90;1.40;;;;;;;;;;5127912;27;20039;-91
2023/12/26 04:33:32;;;;;;;15.73;1.48;;;;;;;;;;5128225;27;20598;-85
2023/12/26 04:35:58;;;;;;;22.55;1.80;;;;;;;;;;5127640;27;20050;-89
2023/12/26 04:38:25;;;;;;;19.25;1.35;;;;;;;;;;5127877;27;20149;-86
2023/12/26 04:40:52;;;;;;;21.00;3.17;;;;;;;;;;5127083;27;20034;-90
2023/12/26 04:43:18;;;;;;;13.68;1.80;;;;;;;;;;5127648;27;20070;-85
2023/12/26 04:45:44;;;;;;;12.98;1.52;;;;;;;;;;5126963;27;20082;-84
2023/12/26 04:48:10;;;;;;;12.25;0.82;;;;;;;;;;5125724;27;20043;-90
2023/12/26 04:50:37;;;;;;;19.75;1.60;;;;;;;;;;5126251;27;20761;-85
2023/12/26 04:53:06;;;;;;;20.90;1.35;;;;;;;;;;5127114;27;20076;-82
2023/12/26 04:55:33;;;;;;;19.02;1.52;;;;;;;;;;5118562;27;20053;-84
2023/12/26 04:57:59;;;;;;;16.58;1.50;;;;;;;;;;5126271;27;20034;-90
2023/12/26 05:00:25;;;;;;;11.13;1.40;;;6.20;99.90;;;;;;5126253;27;20500;-88
2023/12/26 05:02:51;;;;;;;20.00;2.35;;;;;;;;;;5110717;27;20053;-87
2023/12/26 05:05:17;;;;;;;18.73;1.95;;;;;;;;;;5126546;27;20407;-85
2023/12/26 05:07:43;;;;;;;13.68;1.92;;;;;;;;;;5127113;27;20568;-88
2023/12/26 05:10:10;;;;;;;21.73;2.88;;;;;;;;;;5126234;27;20051;-84
2023/12/26 05:12:36;;;;;;;16.42;1.98;;;;;;;;;;5125090;27;20097;-86
2023/12/26 05:15:05;;;;;;;13.63;1.13;;;;;;;;;;5126835;27;20483;-85
2023/12/26 05:17:31;;;;;;;15.38;1.67;;;;;;;;;;5126358;27;20039;-85
2023/12/26 05:19:57;;;;;;;18.90;2.03;;;;;;;;;;5126755;27;20034;-85
2023/12/26 05:22:23;;;;;;;13.48;1.83;;;;;;;;;;5126851;27;20499;-88
2023/12/26 05:24:50;;;;;;;9.90;0.93;;;;;;;;;;5141862;27;20034;-83
2023/12/26 05:27:16;;;;;;;16.38;1.50;;;;;;;;;;5129967;27;20034;-87
2023/12/26 05:29:45;;;;;;;13.43;0.93;;;;;;;;;;5129328;27;20030;-88
2023/12/26 05:32:11;;;;;;;20.83;2.75;;;;;;;;;;5128313;27;20543;-86
2023/12/26 05:34:37;;;;;;;16.63;1.67;;;;;;;;;;5128406;27;20493;-82
2023/12/26 05:37:04;;;;;;;20.17;2.05;;;;;;;;;;5128268;27;20245;-85
2023/12/26 05:39:30;;;;;;;18.00;1.35;;;;;;;;;;5128625;27;20049;-84
2023/12/26 05:41:56;;;;;;;17.52;1.35;;;;;;;;;;5129267;27;20151;-85
2023/12/26 05:44:22;;;;;;;15.93;1.65;;;;;;;;;;5129007;27;20049;-83
2023/12/26 05:46:48;;;;;;;19.42;1.50;;;;;;;;;;5128278;27;20098;-85
2023/12/26 05:49:14;;;;;;;16.98;1.38;;;;;;;;;;5128544;27;20054;-86
2023/12/26 05:51:41;;;;;;;14.25;1.42;;;;;;;;;;5128717;27;20047;-86
2023/12/26 05:54:07;;;;;;;14.15;1.20;;;;;;;;;;5100962;27;20043;-88
2023/12/26 05:56:33;;;;;;;15.32;1.42;;;;;;;;;;5111012;27;20042;-87
2023/12/26 05:58:59;;;;;;;17.80;1.25;;;;;;;;;;5128720;27;20039;-84
2023/12/26 06:01:26;;;;;;;14.05;1.30;;;;;;;;;;5128462;27;20038;-85
2023/12/26 06:03:52;;;;;;;12.02;1.38;;;;;;;;;;5128196;27;20034;-86
2023/12/26 06:06:19;;;;;;;17.10;1.70;;;;;;;;;;5127731;27;20053;-88
2023/12/26 06:08:46;;;;;;;17.00;2.45;;;;;;;;;;5128477;27;20042;-84
2023/12/26 06:11:12;;;;;;;21.63;1.60;;;;;;;;;;5128288;27;20046;-87
2023/12/26 06:13:38;;;;;;;10.93;0.90;;;;;;;;;;5128641;27;20053;-86
2023/12/26 06:16:04;;;;;;;13.43;1.17;;;;;;;;;;5128295;27;20042;-87
2023/12/26 06:18:31;;;;;;;16.48;1.60;;;7.20;99.90;;;;;;5128429;27;20167;-84
2023/12/26 06:20:57;;;;;;;10.93;1.27;;;;;;;;;;5128396;27;20038;-84
2023/12/26 06:23:23;;;;;;;16.02;2.50;;;;;;;;;;5129177;27;20057;-84
2023/12/26 06:25:49;;;;;;;21.25;2.90;;;;;;;;;;5132747;27;20827;-86
2023/12/26 06:28:16;;;;;;;13.73;1.77;;;;;;;;;;5135033;27;20066;-87
2023/12/26 06:30:42;;;;;;;4.22;0.50;;;;;;;;;;5133800;27;20111;-83
2023/12/26 06:33:08;;;;;;;10.98;2.63;;;;;;;;;;5134507;27;20042;-89
2023/12/26 06:35:34;;;;;;;17.08;1.10;;;;;;;;;;5131441;27;20259;-85
2023/12/26 06:38:00;;;;;;;11.35;0.80;;;;;;;;;;5128247;27;20083;-83
2023/12/26 06:40:26;;;;;;;9.32;1.48;;;;;;;;;;5128838;27;20038;-82
2023/12/26 06:42:52;;;;;;;14.50;1.45;;;;;;;;;;5128298;27;20039;-85
2023/12/26 06:45:19;;;;;;;15.20;1.98;;;;;;;;;;5128042;27;20042;-86
2023/12/26 06:47:45;;;;;;;13.60;1.45;;;;;;;;;;5128853;27;20046;-85
2023/12/26 06:50:11;;;;;;;12.65;1.55;;;;;;;;;;5128007;27;20149;-86
2023/12/26 06:52:37;;;;;;;20.38;1.85;;;;;;;;;;5127661;27;20095;-85
2023/12/26 06:55:03;;;;;;;17.58;0.88;;;;;;;;;;5127971;27;20129;-84
2023/12/26 06:57:30;;;;;;;17.63;2.00;;;;;;;;;;5127641;27;20055;-88
2023/12/26 06:59:56;;;;;;;10.80;2.08;;;;;;;;;;5127889;27;20476;-86
2023/12/26 07:02:22;;;;;;;15.88;1.10;;;;;;;;;;5127916;27;20555;-84
2023/12/26 07:04:48;;;;;;;15.38;1.90;;;;;;;;;;5128082;27;20157;-88
2023/12/26 07:07:14;;;;;;;13.18;1.23;;;;;;;;;;5128131;27;20042;-86
2023/12/26 07:09:40;;;;;;;10.15;1.23;;;;;;;;;;5126944;27;20070;-85
2023/12/26 07:12:07;;;;;;;20.60;1.83;;;;;;;;;;5127306;27;20128;-85
2023/12/26 07:14:33;;;;;;;6.35;0.50;;;;;;;;;;5127739;27;20078;-88
2023/12/26 07:16:59;;;;;;;13.90;1.27;;;;;;;;;;5127954;27;20054;-85
2023/12/26 07:19:25;;;;;;;14.38;1.70;;;;;;;;;;5126394;27;20045;-83
2023/12/26 07:21:52;;;;;;;13.02;1.13;;;;;;;;;;5126786;27;20081;-88
2023/12/26 07:24:20;;;;;;;13.38;1.60;;;;;;;;;;5126963;27;20153;-86
2023/12/26 07:26:46;;;;;;;19.35;1.65;;;;;;;;;;5126542;27;20039;-83
2023/12/26 07:29:13;;;;;;;17.65;2.33;;;;;;;;;;5125654;27;20451;-87
2023/12/26 07:31:39;;;;;;;11.60;1.30;;;;;;;;;;5127254;27;20050;-86
2023/12/26 07:34:08;;;;;;;12.73;2.17;;;;;;;;;;5127110;27;20038;-84
2023/12/26 07:36:35;;;;;;;12.02;1.25;;;;;;;;;;5126564;27;20169;-86
2023/12/26 07:39:01;;;;;;;12.75;1.13;;;;;;;;;;5126577;27;20042;-86
2023/12/26 07:41:27;;;;;;;11.82;1.00;;;;;;;;;;5126386;27;20129;-84
2023/12/26 07:43:54;;;;;;;17.10;2.67;;;;;;;;;;5126644;27;20038;-86
2023/12/26 07:46:21;;;;;;;8.82;0.93;;;;;;;;;;5125256;27;20051;-84
2023/12/26 07:48:47;;;;;;;10.75;1.38;;;;;;;;;;5126251;27;20046;-84
2023/12/26 07:51:14;;;;;;;19.73;1.45;;;;;;;;;;5125812;27;20053;-85
2023/12/26 07:53:40;;;;;;;8.95;1.55;;;;;;;;;;5125723;27;20039;-87
2023/12/26 07:56:06;;;;;;;9.77;1.02;;;;;;;;;;5126164;27;20122;-85
2023/12/26 07:58:32;;;;;;;14.55;1.80;;;;;;;;;;5125500;27;20039;-85
2023/12/26 08:00:58;;;;;;;16.55;1.20;;;;;;;;;;5125182;27;20042;-89
2023/12/26 08:03:24;;;;;;;10.35;2.25;;;;;;;;;;5125592;27;20042;-84
2023/12/26 08:05:50;;;;;;;12.70;1.08;;;;;;;;;;5126886;27;20795;-84
2023/12/26 08:08:17;;;;;;;9.90;0.70;;;;;;;;;;5125778;27;20042;-86
2023/12/26 08:10:44;;;;;;;16.90;2.70;;;;;;;;;;5126341;27;20848;-84
2023/12/26 08:13:11;;;;;;;22.95;3.40;;;;;;;;;;5126172;27;20050;-83
2023/12/26 08:15:38;;;;;;;15.45;2.40;;;;;;;;;;5125799;27;20046;-85
2023/12/26 08:18:04;;;;;;;11.57;1.27;;;;;;;;;;5126163;27;20043;-89
2023/12/26 08:20:33;;;;;;;10.43;1.02;;;7.90;99.90;;;;;;5125755;27;20039;-84
2023/12/26 08:23:00;;;;;;;14.95;1.85;;;;;;;;;;5107451;27;20042;-88
2023/12/26 08:25:26;;;;;;;17.50;2.33;;;;;;;;;;5124154;27;20133;-88
2023/12/26 08:27:52;;;;;;;10.38;1.88;;;;;;;;;;5125016;27;20659;-86
2023/12/26 08:30:19;;;;;;;21.90;1.30;;;;;;;;;;5124653;27;20123;-83
2023/12/26 08:32:46;;;;;;;15.30;1.20;;;;;;;;;;5124786;27;20042;-84
2023/12/26 08:35:12;;;;;;;19.45;3.90;;;;;;;;;;5124126;27;20119;-85
2023/12/26 08:37:38;;;;;;;17.00;2.10;;;;;;;;;;5124718;27;20043;-84
2023/12/26 08:40:05;;;;;;;10.80;1.00;;;;;;;;;;5124965;27;20043;-86
2023/12/26 08:42:31;;;;;;;11.32;1.00;;;;;;;;;;5125370;27;20773;-87
2023/12/26 08:44:57;;;;;;;15.82;3.22;;;;;;;;;;5125327;27;20042;-81
2023/12/26 08:47:23;;;;;;;16.98;0.98;;;;;;;;;;5126161;27;20038;-85
2023/12/26 08:49:50;;;;;;;10.07;1.10;;;;;;;;;;5119089;27;20039;-86
2023/12/26 08:52:16;;;;;;;13.57;1.38;;;;;;;;;;5125294;27;20095;-86
2023/12/26 08:54:43;;;;;;;7.43;1.25;;;;;;;;;;5125803;27;20601;-85
2023/12/26 08:57:09;;;;;;;19.42;1.60;;;;;;;;;;5128831;27;20133;-87
2023/12/26 08:59:35;;;;;;;12.15;1.92;;;;;;;;;;5130339;27;20050;-87
2023/12/26 09:02:01;;;;;;;16.33;2.28;;;;;;;;;;5129435;27;20498;-84
2023/12/26 09:04:29;;;;;;;20.02;3.03;;;;;;;;;;5129178;27;20041;-83
2023/12/26 09:06:55;;;;;;;16.08;1.90;;;;;;;;;;5129147;27;20038;-88
2023/12/26 09:09:21;;;;;;;15.40;3.05;;;;;;;;;;5129374;27;20049;-88
2023/12/26 09:11:48;;;;;;;14.35;1.20;;;;;;;;;;5129178;27;20053;-85
2023/12/26 09:14:14;;;;;;;13.15;1.48;;;;;;;;;;5129426;27;20047;-87
2023/12/26 09:16:40;;;;;;;14.38;1.67;;;;;;;;;;5128949;27;20553;-87
2023/12/26 09:19:06;;;;;;;19.35;1.52;;;;;;;;;;5121156;27;20046;-88
2023/12/26 09:21:33;;;;;;;17.65;1.27;;;;;;;;;;5128851;27;20061;-81
2023/12/26 09:23:59;;;;;;;18.20;2.42;;;;;;;;;;5126874;27;20043;-83
2023/12/26 09:26:25;;;;;;;13.60;2.13;;;;;;;;;;5122904;27;20129;-85
2023/12/26 09:28:51;;;;;;;14.15;1.50;;;;;;;;;;5126530;27;20039;-84
2023/12/26 09:31:17;;;;;;;7.93;1.67;;;;;;;;;;5126202;27;20620;-83
2023/12/26 09:33:43;;;;;;;9.50;0.85;;;;;;;;;;5128956;27;20128;-83
2023/12/26 09:36:09;;;;;;;16.92;2.35;;;;;;;;;;5125243;27;20118;-86
2023/12/26 09:38:38;;;;;;;20.08;2.13;;;;;;;;;;5124306;27;20082;-86
2023/12/26 09:41:05;;;;;;;10.57;1.13;;;;;;;;;;5128842;27;20126;-86
2023/12/26 09:43:31;;;;;;;12.77;1.45;;;;;;;;;;5126231;27;20588;-85
2023/12/26 09:45:57;;;;;;;15.15;1.70;;;;;;;;;;5121873;27;20223;-85
2023/12/26 09:48:24;;;;;;;16.20;1.77;;;;;;;;;;5126051;27;20038;-85
2023/12/26 09:50:54;;;;;;;16.95;1.25;;;;;;;;;;5146373;27;20365;-84
2023/12/26 09:53:25;;;;;;;19.27;1.23;;;;;;;;;;5127378;27;20042;-86
2023/12/26 09:55:51;;;;;;;9.23;1.00;;;;;;;;;;5107179;27;20066;-83
2023/12/26 09:58:18;;;;;;;11.75;1.10;;;;;;;;;;5123643;27;20680;-83
2023/12/26 10:00:46;;;;;;;20.13;2.17;;;8.30;99.90;;;;;;5102843;27;20047;-89
2023/12/26 10:03:12;;;;;;;13.02;1.17;;;;;;;;;;5140736;27;20070;-82
2023/12/26 10:05:38;;;;;;;18.35;2.03;;;;;;;;;;5098757;27;20039;-87
2023/12/26 10:08:04;;;;;;;14.50;1.55;;;8.30;99.90;;;;;;5124509;27;20057;-87
2023/12/26 10:10:30;;;;;;;11.95;1.55;;;;;;;;;;5128092;27;20046;-84
2023/12/26 10:12:57;;;;;;;15.70;1.33;;;;;;;;;;5121486;27;20237;-84
2023/12/26 10:15:23;;;;;;;17.45;1.83;;;;;;;;;;5127548;27;20042;-88
2023/12/26 10:17:51;;;;;;;19.60;2.00;;;8.50;99.90;;;;;;5127621;27;20043;-84
2023/12/26 10:20:18;;;;;;;10.13;1.08;;;;;;;;;;5107846;27;20518;-86
2023/12/26 10:22:44;;;;;;;17.60;1.40;;;;;;;;;;5127585;27;20043;-87
2023/12/26 10:25:11;;;;;;;15.40;1.52;;;;;;;;;;5121326;27;20049;-86
2023/12/26 10:27:38;;;;;;;15.65;1.67;;;;;;;;;;5122132;27;20049;-83
2023/12/26 10:30:07;;;;;;;14.35;2.53;;;8.30;99.90;;;;;;5132582;27;20047;-88
2023/12/26 10:32:33;;;;;;;11.95;1.40;;;;;;;;;;5115683;27;20051;-84
2023/12/26 10:35:14;;;;;;;10.57;1.05;;;;;;;;;;5125517;27;20078;-86
2023/12/26 10:37:41;;;;;;;18.05;2.28;;;;;;;;;;5112464;27;20047;-89
2023/12/26 10:40:07;;;;;;;12.88;1.23;;;8.50;99.90;;;;;;5117837;27;20035;-84
2023/12/26 10:42:40;;;;;;;24.00;3.70;;;8.50;99.90;;;;;;5104987;27;20035;-85
2023/12/26 10:45:08;;;;;;;16.90;2.28;;;;;;;;;;5102972;27;20035;-83
2023/12/26 10:47:35;;;;;;;13.57;1.27;;;;;;;;;;5105151;27;20038;-84
2023/12/26 10:50:06;;;;;;;13.43;2.40;;;;;;;;;;5124446;27;20176;-84
2023/12/26 10:52:32;;;;;;;18.00;2.35;;;;;;;;;;5102410;27;20049;-86
2023/12/26 10:55:00;;;;;;;14.75;1.92;;;;;;;;;;5102224;27;20095;-86
2023/12/26 10:57:29;;;;;;;15.82;4.07;;;8.70;99.90;;;;;;5119606;27;20840;-89
2023/12/26 13:51:31;;;;;;;9.90;1.05;;;;;;;;;;5129075;27;20788;-85
2023/12/26 13:54:34;;;;;;;10.45;0.60;;;7.20;99.90;;;;;;5105624;27;20104;-81
2023/12/26 13:57:19;;;;;;;5.68;0.50;;;;;;;;;;5124850;27;20038;-84
2023/12/26 14:00:23;;;;;;;9.00;0.88;;;7.50;99.90;;;;;;5130001;27;20094;-83
2023/12/26 14:03:08;;;;;;;8.40;0.55;;;;;;;;;;5123685;27;20046;-85
2023/12/26 14:05:53;;;;;;;7.32;0.30;;;;;;;;;;5129946;27;20054;-82
2023/12/26 14:08:38;;;;;;;4.00;0.20;;;;;;;;;;5123723;27;20049;-87
2023/12/26 14:11:26;;;;;;;6.57;0.20;;;;;;;;;;5122335;27;20418;-82
2023/12/26 14:14:11;;;;;;;10.38;0.70;;;;;;;;;;5103952;27;20072;-87
2023/12/26 14:16:56;;;;;;;8.70;0.60;;;;;;;;;;5148356;27;20068;-87
2023/12/26 14:19:41;;;;;;;10.02;2.05;;;;;;;;;;5125710;27;20035;-86
2023/12/26 14:22:26;;;;;;;8.65;1.95;;;;;;;;;;5126514;27;20094;-83
2023/12/26 14:25:11;;;;;;;3.78;0.20;;;;;;;;;;5126711;27;20853;-88
2023/12/26 14:28:14;;;;;;;5.65;0.50;;;7.00;99.90;;;;;;5125755;27;20046;-82
2023/12/26 14:31:18;;;;;;;5.22;0.85;;;6.80;99.90;;;;;;5099152;27;20043;-85
2023/12/26 14:34:22;;;;;;;6.53;0.22;;;6.80;99.90;;;;;;5128063;27;20051;-83
2023/12/26 14:37:08;;;;;;;7.57;0.43;;;;;;;;;;5130231;27;20644;-82
2023/12/26 14:40:11;;;;;;;6.65;0.70;;;6.70;99.90;;;;;;5126582;27;20056;-83
2023/12/26 14:43:15;;;;;;;3.53;0.30;;;6.70;99.90;;;;;;5111485;27;20035;-85
2023/12/26 14:46:00;;;;;;;7.40;0.50;;;;;;;;;;5105002;27;20050;-83
2023/12/26 14:48:45;;;;;;;7.65;0.30;;;;;;;;;;5110495;27;20065;-81
2023/12/26 14:51:48;;;;;;;6.72;1.02;;;6.70;99.90;;;;;;5121452;27;20038;-81
2023/12/26 14:54:33;;;;;;;5.00;0.20;;;;;;;;;;5100065;27;20396;-83
2023/12/26 14:57:18;;;;;;;7.68;0.32;;;;;;;;;;5125682;27;20050;-81
2023/12/26 15:00:04;;;;;;;6.20;0.50;;;;;;;;;;5107914;27;20384;-83
2023/12/26 15:02:32;;;;;;;5.43;0.20;;;;;;;;;;5094393;27;20039;-84
2023/12/26 15:04:58;;;;;;;5.88;0.20;;;;;;;;;;5122399;27;20451;-86
2023/12/26 15:07:24;;;;;;;10.20;0.75;;;;;;;;;;5126786;27;20406;-82
2023/12/26 15:09:50;;;;;;;6.32;0.20;;;5.90;99.90;;;;;;5125786;27;20038;-84
2023/12/26 15:12:16;;;;;;;2.10;0.17;;;;;;;;;;5125952;27;20895;-81
2023/12/26 15:14:43;;;;;;;3.50;0.20;;;;;;;;;;5125159;27;20166;-81
2023/12/26 15:17:09;;;;;;;9.38;0.70;;;;;;;;;;5122046;27;20046;-83
2023/12/26 15:19:36;;;;;;;6.30;0.43;;;;;;;;;;5125129;27;20035;-81
2023/12/26 15:22:02;;;;;;;10.75;0.50;;;;;;;;;;5125254;27;20043;-82
2023/12/26 15:24:28;;;;;;;7.28;0.22;;;;;;;;;;5125428;27;20199;-81
2023/12/26 15:26:54;;;;;;;12.32;1.65;;;;;;;;;;5124563;27;20134;-83
2023/12/26 15:29:20;;;;;;;8.50;0.43;;;;;;;;;;5121839;27;20133;-84
2023/12/26 15:31:47;;;;;;;5.93;0.40;;;;;;;;;;5120385;27;20038;-84
2023/12/26 15:34:13;;;;;;;5.68;0.28;;;;;;;;;;5104378;27;20034;-84
2023/12/26 15:36:41;;;;;;;10.00;0.75;;;;;;;;;;5125055;27;20074;-83
2023/12/26 15:39:11;;;;;;;8.75;1.65;;;;;;;;;;5125299;27;20392;-83
2023/12/26 15:41:37;;;;;;;12.68;1.17;;;;;;;;;;5125044;27;20825;-82
2023/12/26 15:44:03;;;;;;;6.28;0.50;;;;;;;;;;5125251;27;20128;-84
2023/12/26 15:46:29;;;;;;;9.55;0.43;;;;;;;;;;5124933;27;20052;-82
2023/12/26 15:48:55;;;;;;;7.90;0.52;;;;;;;;;;5125160;27;20042;-82
2023/12/26 15:51:24;;;;;;;5.25;0.40;;;;;;;;;;5125748;27;20133;-82
2023/12/26 15:53:51;;;;;;;6.85;0.28;;;;;;;;;;5126511;27;20377;-84
2023/12/26 15:56:20;;;;;;;8.73;0.70;;;;;;;;;;5127008;27;20043;-83
2023/12/26 15:58:47;;;;;;;6.70;0.47;;;;;;;;;;5125845;27;20045;-83
2023/12/26 16:01:16;;;;;;;6.50;0.70;;;;;;;;;;5125473;27;20777;-84
2023/12/26 16:03:44;;;;;;;6.35;0.38;;;;;;;;;;5124710;27;20491;-83
2023/12/26 16:06:21;;;;;;;10.65;2.58;;;5.70;99.90;;;;;;5123362;27;20042;-83
2023/12/26 16:08:47;;;;;;;6.40;0.43;;;;;;;;;;5124316;27;20530;-85
2023/12/26 16:11:14;;;;;;;7.75;0.80;;;;;;;;;;5125214;27;20047;-85
2023/12/26 16:13:41;;;;;;;6.22;0.35;;;;;;;;;;5125090;27;20072;-82
2023/12/26 16:16:10;;;;;;;7.53;0.50;;;;;;;;;;5124604;27;20562;-82
2023/12/26 16:18:38;;;;;;;10.80;0.95;;;;;;;;;;5125516;27;20046;-83
2023/12/26 16:21:08;;;;;;;6.25;0.30;;;;;;;;;;5125523;27;20126;-82
2023/12/26 16:23:34;;;;;;;5.50;1.50;;;;;;;;;;5125549;27;20042;-81
2023/12/26 16:26:07;;;;;;;8.00;0.55;;;5.00;99.90;;;;;;5145865;27;20082;-80
2023/12/26 16:28:34;;;;;;;9.32;0.57;;;4.80;99.90;;;;;;5134286;27;20054;-83
2023/12/26 16:31:02;;;;;;;10.13;0.35;;;;;;;;;;5140102;27;20074;-81
2023/12/26 16:33:28;;;;;;;5.35;0.30;;;;;;;;;;5136350;27;20444;-82
2023/12/26 16:35:54;;;;;;;5.85;0.80;;;;;;;;;;5134538;27;20633;-81
2023/12/26 16:38:23;;;;;;;8.38;0.50;;;;;;;;;;5130284;27;20049;-84
2023/12/26 16:40:49;;;;;;;5.80;0.60;;;;;;;;;;5126608;27;20043;-81
2023/12/26 16:43:15;;;;;;;8.18;0.90;;;;;;;;;;5126014;27;20081;-82
2023/12/26 16:45:43;;;;;;;13.32;0.60;;;4.50;99.90;;;;;;5125582;27;20085;-81
2023/12/26 16:48:09;;;;;;;16.67;1.05;;;;;;;;;;5109070;27;20045;-83
2023/12/26 16:50:35;;;;;;;9.27;0.95;;;;;;;;;;5125560;27;20046;-81
2023/12/26 16:53:01;;;;;;;7.60;0.60;;;;;;;;;;5125806;27;20055;-82
2023/12/26 16:55:27;;;;;;;12.05;2.08;;;;;;;;;;5126250;27;20145;-84
2023/12/26 16:57:54;;;;;;;8.20;1.25;;;;;;;;;;5126167;27;20078;-79
2023/12/26 17:00:20;;;;;;;10.75;1.35;;;;;;;;;;5125164;27;20088;-84
2023/12/26 17:02:46;;;;;;;7.82;0.57;;;;;;;;;;5124826;27;20372;-81
2023/12/26 17:05:12;;;;;;;8.50;0.70;;;;;;;;;;5124241;27;20072;-82
2023/12/26 17:07:41;;;;;;;16.80;0.98;;;;;;;;;;5122671;27;20045;-84
2023/12/26 17:10:07;;;;;;;10.30;1.00;;;;;;;;;;5099340;27;20133;-82
2023/12/26 17:12:34;;;;;;;12.45;0.70;;;;;;;;;;5123133;27;20581;-82
2023/12/26 17:15:00;;;;;;;16.25;1.02;;;;;;;;;;5116495;27;20531;-83
2023/12/26 17:17:26;;;;;;;9.18;0.80;;;;;;;;;;5103729;27;20045;-82
2023/12/26 17:19:52;;;;;;;7.38;0.60;;;;;;;;;;5127646;27;20039;-81
2023/12/26 17:22:19;;;;;;;5.28;0.40;;;;;;;;;;5127972;27;20126;-80